Time;durP1;ratioP1;P1;durP2;ratioP2;P2;SDS_P1;SDS_P2;PMS_P1;PMS_P2;Temp;Humidity;BMP_temperature;BMP_pressure;BME280_temperature;BME280_humidity;BME280_pressure;Samples;Min_cycle;Max_cycle;Signal;HPM_P1;HPM_P2
2023/09/26 00:02:23;;;;;;;2.10;2.00;;;;;;;;;;6258008;28;20295;-72
2023/09/26 00:05:27;;;;;;;12.98;2.58;;;;;;;;;;6257374;28;20319;-75
2023/09/26 00:08:31;;;;;;;5.45;2.70;;;;;;;;;;6257132;28;20299;-74
2023/09/26 00:11:35;;;;;;;2.45;2.28;;;;;;;;;;6256992;28;20291;-72
2023/09/26 00:14:40;;;;;;;11.02;2.40;;;;;;;;;;6257196;28;20299;-70
2023/09/26 00:17:44;;;;;;;2.88;2.65;;;;;;;;;;6257157;28;20304;-72
2023/09/26 00:20:48;;;;;;;3.60;2.47;;;;;;;;;;6256895;28;20635;-72
2023/09/26 00:23:52;;;;;;;4.63;2.40;;;;;;;;;;6256666;28;20588;-74
2023/09/26 00:26:57;;;;;;;3.03;2.33;;;;;;;;;;6257104;28;20313;-72
2023/09/26 00:30:02;;;;;;;6.13;2.25;;;;;;;;;;6256875;28;20300;-70
2023/09/26 00:33:06;;;;;;;2.85;2.40;;;;;;;;;;6256905;28;20379;-72
2023/09/26 00:36:11;;;;;;;3.75;2.53;;;;;;;;;;6255179;28;20295;-71
2023/09/26 00:39:16;;;;;;;2.85;2.22;;;;;;;;;;6252148;28;20752;-73
2023/09/26 00:42:20;;;;;;;5.72;2.20;;;;;;;;;;6257057;28;20303;-71
2023/09/26 00:45:25;;;;;;;3.97;2.60;;;;;;;;;;6238690;28;20455;-71
2023/09/26 00:48:31;;;;;;;4.70;2.30;;;;;;;;;;6256187;28;20303;-71
2023/09/26 00:51:36;;;;;;;3.05;2.40;;;;;;;;;;6254645;28;20264;-70
2023/09/26 00:54:40;;;;;;;5.07;2.50;;;;;;;;;;6256734;28;20307;-71
2023/09/26 00:57:45;;;;;;;2.60;2.42;;;;;;;;;;6256949;28;20432;-71
2023/09/26 01:00:51;;;;;;;2.55;2.35;;;;;;;;;;6256579;28;20347;-70
2023/09/26 01:03:56;;;;;;;4.22;3.20;;;;;;;;;;6255203;28;20300;-71
2023/09/26 01:07:00;;;;;;;2.88;2.65;;;;;;;;;;6271960;28;20400;-72
2023/09/26 01:10:05;;;;;;;6.20;2.80;;;;;;;;;;6256570;28;20399;-71
2023/09/26 01:13:09;;;;;;;3.80;2.65;;;;;;;;;;6232494;28;20593;-73
2023/09/26 01:16:16;;;;;;;2.92;2.72;;;;;;;;;;6232179;28;20625;-72
2023/09/26 01:19:19;;;;;;;4.43;3.15;;;;;;;;;;6231006;28;20229;-75
2023/09/26 01:22:27;;;;;;;2.78;2.60;;;;;;;;;;6235402;28;20331;-71
2023/09/26 01:25:33;;;;;;;4.80;2.85;;;;;;;;;;6236564;28;20304;-70
2023/09/26 01:28:37;;;;;;;2.88;2.65;;;;;;;;;;6233430;28;20298;-70
2023/09/26 01:31:41;;;;;;;3.17;2.40;;;;;;;;;;6220572;28;20597;-71
2023/09/26 01:34:44;;;;;;;6.55;2.80;;;;;;;;;;6226962;28;20292;-71
2023/09/26 01:37:50;;;;;;;3.03;2.80;;;;;;;;;;6221150;28;20569;-71
2023/09/26 01:40:55;;;;;;;7.78;2.88;;;;;;;;;;6248197;28;20295;-72
2023/09/26 01:43:59;;;;;;;3.50;2.90;;;;;;;;;;6260046;28;20304;-72
2023/09/26 01:47:02;;;;;;;7.80;2.83;;;;;;;;;;6261377;28;20300;-72
2023/09/26 01:50:08;;;;;;;6.65;2.72;;;;;;;;;;6275377;28;20300;-72
2023/09/26 01:53:13;;;;;;;3.10;2.90;;;;;;;;;;6262597;28;20304;-70
2023/09/26 01:56:18;;;;;;;3.50;2.55;;;;;;;;;;6235631;28;20292;-70
2023/09/26 01:59:22;;;;;;;2.88;2.70;;;;;;;;;;6260357;28;20308;-71
2023/09/26 02:02:26;;;;;;;4.18;2.80;;;;;;;;;;6235150;28;20292;-72
2023/09/26 02:05:30;;;;;;;3.25;2.88;;;;;;;;;;6235551;28;20339;-71
2023/09/26 02:08:34;;;;;;;6.20;2.70;;;;;;;;;;6235338;28;20300;-71
2023/09/26 02:11:39;;;;;;;3.30;2.80;;;;;;;;;;6250774;28;20304;-72
2023/09/26 02:14:43;;;;;;;6.90;2.75;;;;;;;;;;6269674;28;20480;-71
2023/09/26 02:17:47;;;;;;;6.35;3.00;;;;;;;;;;6284746;28;20302;-71
2023/09/26 02:20:50;;;;;;;3.53;2.97;;;;;;;;;;6284336;28;20489;-70
2023/09/26 02:23:54;;;;;;;3.25;3.05;;;;;;;;;;6283250;28;20483;-71
2023/09/26 02:27:00;;;;;;;4.78;2.88;;;;;;;;;;6284624;28;20294;-71
2023/09/26 02:30:05;;;;;;;3.30;3.00;;;;;;;;;;6299597;28;20315;-71
2023/09/26 02:33:09;;;;;;;3.00;2.80;;;;;;;;;;6298492;28;20314;-72
2023/09/26 02:36:13;;;;;;;3.38;3.10;;;;;;;;;;6282767;28;20318;-71
2023/09/26 02:39:17;;;;;;;13.27;4.15;;;;;;;;;;6280170;28;20302;-73
2023/09/26 02:42:22;;;;;;;3.47;2.90;;;;;;;;;;6284297;28;20320;-72
2023/09/26 02:45:26;;;;;;;3.22;2.90;;;;;;;;;;6284073;28;20291;-71
2023/09/26 02:48:30;;;;;;;3.53;2.95;;;;;;;;;;6284204;28;20290;-72
2023/09/26 02:51:33;;;;;;;3.05;2.85;;;;;;;;;;6284374;28;20291;-71
2023/09/26 02:54:37;;;;;;;2.70;2.60;;;;;;;;;;6281322;28;20347;-74
2023/09/26 02:57:42;;;;;;;3.10;3.00;;;;;;;;;;6283771;28;20252;-70
2023/09/26 03:00:50;;;;;;;3.45;3.13;;;;;;;;;;6275661;28;20300;-71
2023/09/26 03:03:54;;;;;;;3.75;3.30;;;;;;;;;;6257728;28;20319;-70
2023/09/26 03:06:58;;;;;;;3.53;3.25;;;;;;;;;;6239895;28;20617;-72
2023/09/26 03:10:02;;;;;;;3.60;3.30;;;;;;;;;;6246930;28;20581;-71
2023/09/26 03:13:07;;;;;;;3.15;2.95;;;;;;;;;;6235920;28;20323;-71
2023/09/26 03:16:14;;;;;;;4.43;3.40;;;;;;;;;;6232569;28;20484;-71
2023/09/26 03:19:23;;;;;;;5.43;2.90;;;;;;;;;;6236014;28;20344;-71
2023/09/26 03:22:28;;;;;;;3.70;3.40;;;;;;;;;;6273559;28;20296;-73
2023/09/26 03:25:32;;;;;;;4.28;3.35;;;;;;;;;;6247350;28;20291;-70
2023/09/26 03:28:38;;;;;;;3.42;3.33;;;;;;;;;;6258064;28;20303;-71
2023/09/26 03:31:42;;;;;;;3.33;3.00;;;;;;;;;;6256856;28;20628;-71
2023/09/26 03:34:46;;;;;;;4.10;3.22;;;;;;;;;;6256024;28;20303;-72
2023/09/26 03:37:50;;;;;;;3.75;3.28;;;;;;;;;;6263910;28;20300;-68
2023/09/26 03:40:57;;;;;;;4.10;3.20;;;;;;;;;;6270769;28;20300;-73
2023/09/26 03:44:03;;;;;;;3.55;3.35;;;;;;;;;;6257600;28;20291;-70
2023/09/26 03:47:06;;;;;;;5.18;3.33;;;;;;;;;;6257891;28;20311;-71
2023/09/26 03:50:10;;;;;;;3.65;3.25;;;;;;;;;;6257105;28;20314;-72
2023/09/26 03:53:14;;;;;;;4.63;3.35;;;;;;;;;;6257806;28;20291;-72
2023/09/26 03:56:18;;;;;;;3.08;2.90;;;;;;;;;;6257315;28;20485;-71
2023/09/26 03:59:23;;;;;;;3.53;3.33;;;;;;;;;;6257182;28;20603;-71
2023/09/26 04:02:27;;;;;;;5.68;3.28;;;;;;;;;;6257624;28;20291;-70
2023/09/26 04:05:31;;;;;;;3.70;3.40;;;;;;;;;;6257168;28;20303;-72
2023/09/26 04:08:35;;;;;;;5.22;3.53;;;;;;;;;;6257335;28;20299;-72
2023/09/26 04:11:39;;;;;;;3.75;3.45;;;;;;;;;;6257616;28;20295;-72
2023/09/26 04:14:44;;;;;;;3.70;3.50;;;;;;;;;;6257154;28;20489;-71
2023/09/26 04:17:47;;;;;;;3.97;3.60;;;;;;;;;;6257568;28;20589;-74
2023/09/26 04:20:52;;;;;;;7.72;3.80;;;;;;;;;;6256821;28;20287;-72
2023/09/26 04:23:55;;;;;;;11.65;3.83;;;;;;;;;;6256972;28;20283;-71
2023/09/26 04:26:59;;;;;;;5.55;3.60;;;;;;;;;;6257398;28;20631;-73
2023/09/26 04:30:07;;;;;;;4.25;3.95;;;;;;;;;;6256659;28;20303;-71
2023/09/26 04:33:11;;;;;;;4.07;3.40;;;;;;;;;;6256895;28;20612;-73
2023/09/26 04:36:14;;;;;;;3.72;3.53;;;;;;;;;;6256694;28;20323;-72
2023/09/26 04:39:18;;;;;;;4.43;4.20;;;;;;;;;;6254784;28;20304;-72
2023/09/26 04:42:22;;;;;;;6.00;4.65;;;;;;;;;;6257116;28;20292;-71
2023/09/26 04:45:30;;;;;;;4.20;3.90;;;;;;;;;;6256446;28;20299;-71
2023/09/26 04:48:34;;;;;;;4.07;3.83;;;;;;;;;;6256539;28;20304;-70
2023/09/26 04:51:38;;;;;;;3.72;3.53;;;;;;;;;;6256399;28;20272;-71
2023/09/26 04:54:42;;;;;;;3.88;3.70;;;;;;;;;;6256670;28;20303;-71
2023/09/26 04:57:45;;;;;;;4.10;3.80;;;;;;;;;;6260758;28;20256;-73
2023/09/26 05:00:51;;;;;;;7.45;4.22;;;;;;;;;;6260915;28;20468;-71
2023/09/26 05:03:55;;;;;;;4.28;3.90;;;;;;;;;;6260898;28;20304;-71
2023/09/26 05:06:59;;;;;;;5.70;4.03;;;;;;;;;;6261341;28;20488;-71
2023/09/26 05:10:03;;;;;;;3.90;3.80;;;;;;;;;;6261037;28;20316;-70
2023/09/26 05:13:07;;;;;;;8.60;4.15;;;;;;;;;;6261390;28;20347;-71
2023/09/26 05:16:16;;;;;;;7.57;4.03;;;;;;;;;;6261261;28;20299;-71
2023/09/26 05:19:19;;;;;;;6.10;3.70;;;;;;;;;;6256730;28;20311;-72
2023/09/26 05:22:24;;;;;;;3.78;3.55;;;;;;;;;;6269884;28;20299;-70
2023/09/26 05:25:28;;;;;;;4.75;4.32;;;;;;;;;;6260562;28;20312;-69
2023/09/26 05:28:32;;;;;;;7.70;4.30;;;;;;;;;;6276306;28;20502;-72
2023/09/26 05:31:37;;;;;;;4.47;4.03;;;;;;;;;;6260896;28;20315;-72
2023/09/26 05:34:41;;;;;;;6.55;4.47;;;;;;;;;;6260648;28;20291;-72
2023/09/26 05:37:45;;;;;;;4.22;4.00;;;;;;;;;;6260762;28;20287;-71
2023/09/26 05:40:50;;;;;;;4.45;4.03;;;;;;;;;;6258696;28;20287;-70
2023/09/26 05:43:54;;;;;;;8.90;4.10;;;;;;;;;;6261534;28;20307;-72
2023/09/26 05:46:59;;;;;;;4.30;4.00;;;;;;;;;;6261175;28;20312;-72
2023/09/26 05:50:04;;;;;;;4.40;4.00;;;;;;;;;;6259940;28;20296;-71
2023/09/26 05:53:08;;;;;;;5.28;3.92;;;;;;;;;;6260699;28;20304;-70
2023/09/26 05:56:11;;;;;;;5.40;4.70;;;;;;;;;;6260296;28;20303;-71
2023/09/26 05:59:15;;;;;;;5.43;4.50;;;;;;;;;;6259842;28;20560;-71
2023/09/26 06:02:20;;;;;;;6.85;3.97;;;;;;;;;;6260347;28;20236;-71
2023/09/26 06:05:24;;;;;;;7.07;3.92;;;;;;;;;;6259879;28;20300;-70
2023/09/26 06:08:28;;;;;;;4.68;4.22;;;;;;;;;;6258655;28;20288;-71
2023/09/26 06:11:32;;;;;;;8.15;4.55;;;;;;;;;;6260103;28;20295;-71
2023/09/26 06:14:36;;;;;;;7.32;4.88;;;;;;;;;;6259947;28;20296;-71
2023/09/26 06:17:41;;;;;;;6.40;4.15;;;;;;;;;;6260127;28;20438;-71
2023/09/26 06:20:45;;;;;;;7.72;4.68;;;;;;;;;;6259447;28;20543;-71
2023/09/26 06:23:49;;;;;;;8.05;4.10;;;;;;;;;;6259464;28;20292;-71
2023/09/26 06:26:53;;;;;;;7.93;4.72;;;;;;;;;;6259885;28;20314;-71
2023/09/26 06:29:57;;;;;;;9.25;4.55;;;;;;;;;;6259250;28;20307;-70
2023/09/26 06:33:02;;;;;;;7.38;4.72;;;;;;;;;;6259167;28;20311;-71
2023/09/26 06:36:13;;;;;;;8.35;4.63;;;;;;;;;;6259078;28;20599;-70
2023/09/26 06:39:17;;;;;;;6.90;4.05;;;;;;;;;;6257448;28;20323;-71
2023/09/26 06:42:21;;;;;;;7.03;4.10;;;;;;;;;;6259420;28;20303;-71
2023/09/26 06:45:25;;;;;;;4.28;3.95;;;;;;;;;;6259597;28;20326;-70
2023/09/26 06:48:30;;;;;;;9.50;4.40;;;;;;;;;;6259503;28;20505;-71
2023/09/26 06:51:34;;;;;;;9.75;4.43;;;;;;;;;;6258530;28;20292;-73
2023/09/26 06:54:38;;;;;;;4.72;4.18;;;;;;;;;;6259541;28;20485;-71
2023/09/26 06:57:42;;;;;;;6.85;4.65;;;;;;;;;;6259377;28;20252;-71
2023/09/26 07:00:46;;;;;;;12.60;4.22;;;;;;;;;;6259213;28;20299;-71
2023/09/26 07:03:51;;;;;;;5.57;4.80;;;;;;;;;;6258364;28;20307;-74
2023/09/26 07:06:55;;;;;;;4.53;3.92;;;;;;;;;;6259517;28;20301;-71
2023/09/26 07:09:59;;;;;;;5.65;4.35;;;;;;;;;;6258851;28;20295;-71
2023/09/26 07:13:04;;;;;;;4.50;4.15;;;;;;;;;;6259050;28;20303;-70
2023/09/26 07:16:11;;;;;;;4.30;3.97;;;;;;;;;;6257961;28;20300;-72
2023/09/26 07:19:17;;;;;;;8.23;3.83;;;;;;;;;;6258505;28;20291;-70
2023/09/26 07:22:21;;;;;;;6.18;4.20;;;;;;;;;;6259050;28;20295;-72
2023/09/26 07:25:25;;;;;;;5.57;4.30;;;;;;;;;;6258041;28;20303;-71
2023/09/26 07:28:28;;;;;;;5.45;4.25;;;;;;;;;;6256139;28;20319;-71
2023/09/26 07:31:33;;;;;;;10.73;4.80;;;;;;;;;;6258061;28;20331;-72
2023/09/26 07:34:38;;;;;;;10.38;4.75;;;;;;;;;;6258070;28;20292;-72
2023/09/26 07:37:42;;;;;;;14.10;4.70;;;;;;;;;;6258261;28;20501;-71
2023/09/26 07:40:46;;;;;;;7.50;4.32;;;;;;;;;;6255996;28;20300;-72
2023/09/26 07:43:50;;;;;;;4.35;3.97;;;;;;;;;;6239568;28;20241;-70
2023/09/26 07:46:54;;;;;;;12.52;4.47;;;;;;;;;;6235145;28;20296;-72
2023/09/26 07:50:01;;;;;;;10.15;4.53;;;;;;;;;;6233291;28;20304;-70
2023/09/26 07:53:05;;;;;;;4.72;4.22;;;;;;;;;;6233673;28;20300;-70
2023/09/26 07:56:08;;;;;;;4.68;4.28;;;;;;;;;;6210828;28;20578;-70
2023/09/26 07:59:13;;;;;;;8.38;4.20;;;;;;;;;;6221348;28;20319;-70
2023/09/26 08:02:17;;;;;;;4.68;4.07;;;;;;;;;;6233431;28;20296;-71
2023/09/26 08:05:22;;;;;;;6.75;3.95;;;;;;;;;;6217511;28;20351;-73
2023/09/26 08:08:26;;;;;;;5.55;4.20;;;;;;;;;;6223037;28;20288;-69
2023/09/26 08:11:30;;;;;;;7.13;4.35;;;;;;;;;;6243786;28;20299;-70
2023/09/26 08:14:34;;;;;;;8.40;4.00;;;;;;;;;;6257536;28;20295;-73
2023/09/26 08:17:38;;;;;;;3.83;3.45;;;;;;;;;;6257964;28;20303;-71
2023/09/26 08:20:44;;;;;;;12.32;5.85;;;;;;;;;;6256057;28;20436;-71
2023/09/26 08:23:50;;;;;;;8.13;4.45;;;;;;;;;;6257475;28;20295;-72
2023/09/26 08:26:54;;;;;;;4.30;4.00;;;;;;;;;;6257885;28;20300;-72
2023/09/26 08:30:00;;;;;;;4.57;4.00;;;;;;;;;;6256783;28;20323;-69
2023/09/26 08:33:04;;;;;;;7.70;4.10;;;;;;;;;;6254408;28;20324;-70
2023/09/26 08:36:16;;;;;;;6.60;4.32;;;;;;;;;;6255627;28;20303;-70
2023/09/26 08:39:19;;;;;;;4.45;4.00;;;;;;;;;;6254877;28;20300;-71
2023/09/26 08:42:27;;;;;;;6.03;4.22;;;;;;;;;;6257094;28;20475;-73
2023/09/26 08:45:31;;;;;;;4.07;3.78;;;;;;;;;;6256594;28;20662;-71
2023/09/26 08:48:35;;;;;;;4.57;3.80;;;;;;;;;;6256157;28;20279;-71
2023/09/26 08:51:40;;;;;;;7.70;3.67;;;;;;;;;;6257548;28;20264;-70
2023/09/26 08:54:44;;;;;;;6.10;4.13;;;;;;;;;;6256904;28;20299;-70
2023/09/26 08:57:49;;;;;;;5.55;4.38;;;;;;;;;;6257156;28;20255;-72
2023/09/26 09:00:53;;;;;;;66.20;10.20;;;;;;;;;;6255810;28;20307;-71
2023/09/26 09:03:57;;;;;;;39.67;8.48;;;;;;;;;;6255800;28;20303;-72
2023/09/26 09:07:04;;;;;;;4.28;3.83;;;;;;;;;;6257095;28;20291;-71
2023/09/26 09:10:11;;;;;;;5.93;3.80;;;;;;;;;;6244697;28;20462;-69
2023/09/26 09:13:26;;;;;;;4.60;4.07;;;;;;;;;;6256846;28;20604;-71
2023/09/26 09:16:30;;;;;;;5.90;4.22;;;;;;;;;;6256173;28;20296;-70
2023/09/26 09:19:47;;;;;;;6.63;4.18;;;;;;;;;;6256370;28;20292;-71
2023/09/26 09:22:59;;;;;;;10.20;4.80;;;;;;;;;;6256780;28;20312;-71
2023/09/26 09:26:12;;;;;;;6.72;4.00;;;;;;;;;;6255688;28;20323;-70
2023/09/26 09:29:18;;;;;;;4.65;4.35;;;;;;;;;;6255626;28;20308;-71
2023/09/26 09:32:21;;;;;;;4.97;4.57;;;;;;;;;;6256837;28;20632;-72
2023/09/26 09:35:25;;;;;;;4.28;4.07;;;;;;;;;;6253897;28;20307;-72
2023/09/26 09:38:32;;;;;;;4.43;3.85;;;;;;;;;;6256270;28;20295;-70
2023/09/26 09:41:38;;;;;;;5.72;4.40;;;;;;;;;;6254673;28;20295;-71
2023/09/26 09:44:42;;;;;;;4.50;4.10;;;;;;;;;;6260482;28;20303;-71
2023/09/26 09:47:47;;;;;;;4.72;4.10;;;;;;;;;;6261087;28;20616;-71
2023/09/26 09:50:53;;;;;;;4.68;4.20;;;;;;;;;;6260435;28;20303;-72
2023/09/26 09:54:01;;;;;;;4.30;4.00;;;;;;;;;;6260195;28;20295;-70
2023/09/26 09:57:09;;;;;;;8.05;3.70;;;;;;;;;;6260726;28;20299;-72
2023/09/26 10:00:14;;;;;;;9.52;3.78;;;;;;;;;;6260471;28;20292;-72
2023/09/26 10:03:18;;;;;;;4.20;3.97;;;;;;;;;;6260448;28;20628;-71
2023/09/26 10:06:23;;;;;;;5.20;4.00;;;;;;;;;;6260108;28;20585;-70
2023/09/26 10:09:29;;;;;;;11.10;3.95;;;;;;;;;;6258971;28;20624;-71
2023/09/26 10:12:33;;;;;;;3.80;3.35;;;;;;;;;;6260352;28;20287;-70
2023/09/26 10:16:11;;;;;;;14.57;5.50;;;;;;;;;;6259142;28;20347;-71
2023/09/26 10:19:18;;;;;;;8.02;4.00;;;;;;;;;;6259823;28;20296;-71
2023/09/26 10:22:40;;;;;;;8.77;3.90;;;;;;;;;;6259883;28;20308;-70
2023/09/26 10:25:46;;;;;;;9.00;4.05;;;;;;;;;;6259159;28;20307;-74
2023/09/26 10:28:49;;;;;;;3.97;3.53;;;;;;;;;;6259425;28;20288;-71
2023/09/26 10:31:55;;;;;;;8.00;3.70;;;;;;;;;;6259744;28;20328;-70
2023/09/26 10:35:00;;;;;;;8.57;3.90;;;;;;;;;;6260093;28;20315;-70
2023/09/26 10:38:18;;;;;;;7.07;3.88;;;;;;;;;;6260175;28;20296;-71
2023/09/26 10:41:24;;;;;;;7.00;3.95;;;;;;;;;;6257352;28;20291;-71
2023/09/26 10:44:28;;;;;;;5.10;4.18;;;;;;;;;;6256715;28;20292;-71
2023/09/26 10:47:36;;;;;;;14.45;3.80;;;;;;;;;;6259660;28;20448;-71
2023/09/26 10:50:41;;;;;;;5.90;4.72;;;;;;;;;;6259524;28;20597;-71
2023/09/26 10:53:45;;;;;;;3.75;3.47;;;;;;;;;;6257047;28;20487;-70
2023/09/26 10:56:52;;;;;;;8.68;3.90;;;;;;;;;;6259663;28;20287;-71
2023/09/26 10:59:56;;;;;;;8.77;3.22;;;;;;;;;;6258778;28;20322;-72
2023/09/26 11:03:00;;;;;;;4.50;3.58;;;;;;;;;;6259292;28;20295;-73
2023/09/26 11:06:24;;;;;;;3.60;3.30;;;;;;;;;;6258759;28;20299;-71
2023/09/26 11:09:29;;;;;;;3.08;2.97;;;;;;;;;;6256402;28;20489;-71
2023/09/26 11:12:34;;;;;;;10.50;3.65;;;;;;;;;;6258834;28;20295;-71
2023/09/26 11:15:38;;;;;;;24.80;4.50;;;;;;;;;;6257882;28;20287;-72
2023/09/26 11:18:42;;;;;;;14.23;3.75;;;;;;;;;;6258917;28;20252;-71
2023/09/26 11:21:49;;;;;;;5.93;3.75;;;;;;;;;;6259533;28;20244;-71
2023/09/26 11:25:06;;;;;;;5.05;3.22;;;;;;;;;;6257978;28;20300;-71
2023/09/26 11:28:11;;;;;;;7.60;3.38;;;;;;;;;;6258408;28;20295;-70
2023/09/26 11:31:15;;;;;;;5.13;3.55;;;;;;;;;;6257732;28;20517;-71
2023/09/26 11:34:20;;;;;;;3.33;3.03;;;;;;;;;;6257958;28;20488;-71
2023/09/26 11:37:25;;;;;;;3.50;3.10;;;;;;;;;;6258369;28;20303;-71
2023/09/26 11:40:29;;;;;;;9.68;3.30;;;;;;;;;;6256197;28;20299;-70
2023/09/26 11:43:41;;;;;;;5.97;3.13;;;;;;;;;;6257707;28;20503;-71
2023/09/26 11:46:47;;;;;;;6.40;3.47;;;;;;;;;;6258145;28;20287;-71
2023/09/26 11:49:52;;;;;;;6.32;3.30;;;;;;;;;;6257438;28;20307;-71
2023/09/26 11:52:57;;;;;;;3.33;3.03;;;;;;;;;;6258018;28;20299;-72
2023/09/26 11:56:01;;;;;;;8.75;3.92;;;;;;;;;;6257342;28;20503;-70
2023/09/26 11:59:07;;;;;;;6.38;3.80;;;;;;;;;;6257067;28;20304;-71
2023/09/26 12:02:11;;;;;;;14.55;3.40;;;;;;;;;;6256152;28;20480;-69
2023/09/26 12:05:16;;;;;;;13.48;3.80;;;;;;;;;;6256447;28;20604;-73
2023/09/26 12:08:19;;;;;;;5.43;3.50;;;;;;;;;;6257176;28;20485;-71
2023/09/26 12:11:24;;;;;;;6.38;3.65;;;;;;;;;;6256894;28;20615;-71
2023/09/26 12:14:29;;;;;;;7.07;3.28;;;;;;;;;;6256321;28;20299;-71
2023/09/26 12:17:33;;;;;;;6.53;3.30;;;;;;;;;;6257285;28;20291;-71
2023/09/26 12:20:37;;;;;;;8.70;3.40;;;;;;;;;;6272276;28;20484;-72
2023/09/26 12:23:41;;;;;;;8.55;3.55;;;;;;;;;;6256837;28;20299;-71
2023/09/26 12:26:46;;;;;;;3.40;3.15;;;;;;;;;;6257123;28;20566;-70
2023/09/26 12:29:52;;;;;;;4.07;2.78;;;;;;;;;;6256597;28;20300;-70
2023/09/26 12:32:56;;;;;;;5.20;3.20;;;;;;;;;;6256899;28;20367;-71
2023/09/26 12:36:00;;;;;;;5.60;3.53;;;;;;;;;;6256692;28;20468;-69
2023/09/26 12:39:04;;;;;;;3.95;3.28;;;;;;;;;;6254733;28;20520;-71
2023/09/26 12:42:08;;;;;;;4.43;3.50;;;;;;;;;;6257146;28;20295;-71
2023/09/26 12:45:13;;;;;;;3.55;3.33;;;;;;;;;;6256561;28;20312;-69
2023/09/26 12:48:17;;;;;;;3.95;3.38;;;;;;;;;;6257049;28;20576;-69
2023/09/26 12:51:21;;;;;;;9.30;3.78;;;;;;;;;;6256529;28;20616;-72
2023/09/26 12:54:25;;;;;;;5.97;3.60;;;;;;;;;;6256592;28;20311;-70
2023/09/26 12:57:29;;;;;;;4.38;2.90;;;;;;;;;;6255102;28;20416;-69
2023/09/26 13:00:35;;;;;;;3.72;3.15;;;;;;;;;;6256613;28;20300;-68
2023/09/26 13:03:39;;;;;;;4.47;3.22;;;;;;;;;;6254850;28;20271;-70
2023/09/26 13:06:43;;;;;;;4.55;4.18;;;;;;;;;;6256839;28;20276;-69
2023/09/26 13:09:47;;;;;;;3.63;3.30;;;;;;;;;;6256154;28;20476;-67
2023/09/26 13:12:51;;;;;;;3.15;2.90;;;;;;;;;;6256748;28;20252;-69
2023/09/26 13:15:57;;;;;;;4.57;3.00;;;;;;;;;;6256285;28;20303;-71
2023/09/26 13:19:01;;;;;;;3.60;3.40;;;;;;;;;;6260064;28;20331;-69
2023/09/26 13:22:07;;;;;;;3.17;2.97;;;;;;;;;;6261353;28;20307;-71
2023/09/26 13:25:11;;;;;;;3.25;3.03;;;;;;;;;;6261009;28;20327;-69
2023/09/26 13:28:15;;;;;;;3.30;2.90;;;;;;;;;;6261160;28;20283;-69
2023/09/26 13:31:20;;;;;;;3.75;3.05;;;;;;;;;;6260363;28;20311;-69
2023/09/26 13:34:24;;;;;;;6.07;3.17;;;;;;;;;;6260776;28;20303;-70
2023/09/26 13:37:28;;;;;;;5.13;3.10;;;;;;;;;;6260927;28;20291;-70
2023/09/26 13:40:32;;;;;;;3.58;2.97;;;;;;;;;;6258656;28;20418;-70
2023/09/26 13:43:35;;;;;;;10.15;3.05;;;;;;;;;;6260452;28;20299;-70
2023/09/26 13:46:46;;;;;;;5.38;3.38;;;;;;;;;;6260923;28;20588;-69
2023/09/26 13:49:51;;;;;;;7.50;3.38;;;;;;;;;;6258424;28;20379;-69
2023/09/26 13:52:55;;;;;;;6.45;3.38;;;;;;;;;;6256321;28;20299;-70
2023/09/26 13:55:59;;;;;;;5.90;4.38;;;;;;;;;;6259983;28;20484;-74
2023/09/26 13:59:02;;;;;;;7.20;3.35;;;;;;;;;;6260851;28;20303;-72
2023/09/26 14:02:08;;;;;;;7.57;3.50;;;;;;;;;;6261479;28;20338;-71
2023/09/26 14:05:12;;;;;;;3.50;3.30;;;;;;;;;;6263208;28;20303;-74
2023/09/26 14:08:22;;;;;;;5.15;3.42;;;;;;;;;;6261083;28;20300;-71
2023/09/26 14:11:26;;;;;;;10.93;4.50;;;;;;;;;;6259856;28;20307;-72
2023/09/26 14:14:30;;;;;;;8.93;4.30;;;;;;;;;;6260891;28;20311;-74
2023/09/26 14:17:36;;;;;;;6.05;4.20;;;;;;;;;;6277976;28;20295;-76
2023/09/26 14:20:40;;;;;;;19.67;4.75;;;;;;;;;;6277343;28;20624;-72
2023/09/26 14:23:44;;;;;;;6.32;4.10;;;;;;;;;;6277563;28;20288;-75
2023/09/26 14:26:51;;;;;;;8.02;3.50;;;;;;;;;;6276361;28;20296;-74
2023/09/26 14:30:01;;;;;;;8.32;4.07;;;;;;;;;;6261256;28;20315;-72
2023/09/26 14:33:07;;;;;;;11.40;3.60;;;;;;;;;;6260444;28;20296;-71
2023/09/26 14:36:11;;;;;;;9.45;3.95;;;;;;;;;;6259506;28;20280;-71
2023/09/26 14:39:16;;;;;;;4.32;3.70;;;;;;;;;;6257568;28;20295;-71
2023/09/26 14:42:20;;;;;;;4.30;3.90;;;;;;;;;;6258716;28;20291;-72
2023/09/26 14:45:23;;;;;;;3.75;3.45;;;;;;;;;;6259179;28;20296;-71
2023/09/26 14:48:33;;;;;;;3.58;3.28;;;;;;;;;;6259711;28;20600;-73
2023/09/26 14:51:36;;;;;;;4.22;3.90;;;;;;;;;;6235523;28;20477;-71
2023/09/26 14:54:40;;;;;;;3.53;3.28;;;;;;;;;;6252570;28;20497;-71
2023/09/26 14:57:44;;;;;;;4.10;3.80;;;;;;;;;;6274260;28;20268;-73
2023/09/26 15:00:48;;;;;;;5.38;4.88;;;;;;;;;;6258783;28;20301;-72
2023/09/26 15:03:54;;;;;;;9.73;5.70;;;;;;;;;;6258969;28;20493;-73
2023/09/26 15:06:57;;;;;;;8.77;5.63;;;;;;;;;;6259156;28;20299;-71
2023/09/26 15:10:01;;;;;;;8.13;5.32;;;;;;;;;;6258877;28;20364;-71
2023/09/26 15:13:06;;;;;;;11.13;5.13;;;;;;;;;;6257215;28;20606;-72
2023/09/26 15:16:10;;;;;;;7.45;4.53;;;;;;;;;;6239075;28;20284;-72
2023/09/26 15:19:15;;;;;;;4.50;4.22;;;;;;;;;;6233890;28;20612;-71
2023/09/26 15:22:19;;;;;;;4.22;4.03;;;;;;;;;;6234260;28;20300;-72
2023/09/26 15:25:23;;;;;;;9.63;4.20;;;;;;;;;;6233748;28;20315;-72
2023/09/26 15:28:27;;;;;;;4.78;3.70;;;;;;;;;;6234103;28;20308;-70
2023/09/26 15:31:33;;;;;;;7.93;4.20;;;;;;;;;;6233201;28;20308;-71
2023/09/26 15:34:41;;;;;;;4.13;3.83;;;;;;;;;;6233978;28;20296;-74
2023/09/26 15:37:45;;;;;;;3.83;3.63;;;;;;;;;;6234045;28;20308;-71
2023/09/26 15:40:49;;;;;;;3.63;3.53;;;;;;;;;;6251894;28;20298;-73
2023/09/26 15:43:54;;;;;;;4.45;4.10;;;;;;;;;;6282554;28;20491;-71
2023/09/26 15:46:57;;;;;;;4.72;3.67;;;;;;;;;;6283068;28;20295;-71
2023/09/26 15:50:03;;;;;;;4.10;3.78;;;;;;;;;;6282412;28;20294;-71
2023/09/26 15:53:06;;;;;;;3.53;3.40;;;;;;;;;;6283121;28;20300;-72
2023/09/26 15:56:11;;;;;;;3.67;3.38;;;;;;;;;;6283464;28;20347;-72
2023/09/26 15:59:15;;;;;;;5.53;3.97;;;;;;;;;;6282845;28;20291;-75
2023/09/26 16:02:19;;;;;;;4.75;3.40;;;;;;;;;;6282376;28;20563;-73
2023/09/26 16:05:24;;;;;;;3.15;3.15;;;;;;;;;;6282579;28;20294;-73
2023/09/26 16:08:28;;;;;;;3.33;3.22;;;;;;;;;;6282591;28;20429;-72
2023/09/26 16:11:32;;;;;;;3.03;3.03;;;;;;;;;;6271749;28;20287;-72
2023/09/26 16:14:36;;;;;;;6.28;3.58;;;;;;;;;;6257714;28;20291;-70
2023/09/26 16:17:40;;;;;;;5.60;3.50;;;;;;;;;;6258003;28;20590;-72
2023/09/26 16:20:45;;;;;;;4.63;3.22;;;;;;;;;;6257457;28;20303;-72
2023/09/26 16:23:51;;;;;;;7.53;4.28;;;;;;;;;;6257570;28;20291;-72
2023/09/26 16:26:55;;;;;;;5.28;4.82;;;;;;;;;;6256065;28;20230;-72
2023/09/26 16:30:00;;;;;;;4.97;4.47;;;;;;;;;;6257724;28;20299;-71
2023/09/26 16:33:04;;;;;;;6.65;4.30;;;;;;;;;;6258005;28;20375;-71
2023/09/26 16:36:17;;;;;;;4.82;4.53;;;;;;;;;;6257172;28;20299;-70
2023/09/26 16:39:26;;;;;;;4.43;4.00;;;;;;;;;;6255213;28;20299;-70
2023/09/26 16:42:30;;;;;;;4.47;3.72;;;;;;;;;;6257385;28;20631;-70
2023/09/26 16:45:35;;;;;;;4.43;4.00;;;;;;;;;;6256307;28;20616;-72
2023/09/26 16:48:39;;;;;;;6.57;4.10;;;;;;;;;;6255935;28;20283;-70
2023/09/26 16:51:44;;;;;;;4.38;4.07;;;;;;;;;;6256849;28;20320;-71
2023/09/26 16:54:48;;;;;;;5.32;4.32;;;;;;;;;;6277737;28;20485;-74
2023/09/26 16:57:52;;;;;;;7.18;4.82;;;;;;;;;;6262505;28;20251;-72
2023/09/26 17:00:56;;;;;;;8.27;4.65;;;;;;;;;;6262017;28;20315;-72
2023/09/26 17:04:00;;;;;;;5.43;4.80;;;;;;;;;;6261702;28;20477;-71
2023/09/26 17:07:05;;;;;;;11.07;4.93;;;;;;;;;;6261922;28;20299;-70
2023/09/26 17:10:10;;;;;;;10.82;5.35;;;;;;;;;;6261427;28;20588;-71
2023/09/26 17:13:14;;;;;;;8.10;5.38;;;;;;;;;;6262049;28;20295;-69
2023/09/26 17:16:17;;;;;;;6.03;5.30;;;;;;;;;;6261515;28;20588;-73
2023/09/26 17:19:21;;;;;;;8.60;6.03;;;;;;;;;;6261333;28;20295;-72
2023/09/26 17:22:27;;;;;;;14.57;6.85;;;;;;;;;;6261575;28;20315;-73
2023/09/26 17:25:31;;;;;;;14.50;6.70;;;;;;;;;;6261437;28;20448;-72
2023/09/26 17:28:34;;;;;;;10.25;6.50;;;;;;;;;;6276954;28;20318;-73
2023/09/26 17:31:38;;;;;;;8.45;5.88;;;;;;;;;;6260598;28;20307;-73
2023/09/26 17:34:42;;;;;;;14.55;9.25;;;;;;;;;;6260524;28;20497;-71
2023/09/26 17:37:48;;;;;;;14.73;7.25;;;;;;;;;;6261492;28;20307;-73
2023/09/26 17:40:54;;;;;;;11.02;7.00;;;;;;;;;;6258604;28;20327;-71
2023/09/26 17:43:58;;;;;;;11.45;6.45;;;;;;;;;;6258708;28;20296;-71
2023/09/26 17:47:02;;;;;;;11.55;7.15;;;;;;;;;;6260947;28;20614;-73
2023/09/26 17:50:07;;;;;;;19.00;7.65;;;;;;;;;;6260266;28;20319;-71
2023/09/26 17:53:13;;;;;;;16.13;8.15;;;;;;;;;;6260588;28;20396;-73
2023/09/26 17:56:17;;;;;;;17.80;8.50;;;;;;;;;;6260223;28;20303;-72
2023/09/26 17:59:21;;;;;;;12.32;7.30;;;;;;;;;;6260013;28;20416;-73
2023/09/26 18:02:25;;;;;;;9.40;7.20;;;;;;;;;;6260572;28;20292;-72
2023/09/26 18:05:29;;;;;;;13.65;7.03;;;;;;;;;;6259675;28;20620;-71
2023/09/26 18:08:34;;;;;;;7.88;7.00;;;;;;;;;;6260056;28;20307;-73
2023/09/26 18:11:38;;;;;;;13.07;6.72;;;;;;;;;;6259977;28;20299;-71
2023/09/26 18:14:44;;;;;;;10.57;7.43;;;;;;;;;;6259587;28;20295;-71
2023/09/26 18:17:48;;;;;;;9.98;6.97;;;;;;;;;;6260403;28;20595;-70
2023/09/26 18:20:52;;;;;;;10.27;6.15;;;;;;;;;;6259739;28;20319;-71
2023/09/26 18:23:57;;;;;;;7.15;6.50;;;;;;;;;;6259695;28;20291;-71
2023/09/26 18:27:03;;;;;;;8.38;5.97;;;;;;;;;;6258501;28;20303;-73